Monday, October 16, 2017, 8:13 PM EDT
Back to Local

KPOU, Poughkeepsie Dutchess Cty

Location: Wappingers Falls, NY, United States Lat: 41.633
Local Time: 8:13 PM EDT ( 0:13 GMT) Lon: -73.883
Time Zone: US/Eastern Elev: 167 ft

Show me the last for .
Show Coded

Time T Td Feel RH Dir Speed Gust Alt SLP Vis Weather Sky Remarks
2017-10-16 19:53 50 34 44 53 310° 12 17 30.14 30.13 10 BKN050 OVC065 6-hr Min Temp (8pm): 48.9°F
6-hr Max Temp (8pm): 55.9°F
2017-10-16 18:53 50 37 48 60 350° 5 - 30.11 30.09 10 BKN065 None
2017-10-16 17:53 52 37 - 56 350° 5 - 30.08 30.07 10 BKN055 None
2017-10-16 16:53 54 37 - 52 330° 7 - 30.06 30.05 10 BKN049 None
2017-10-16 15:53 55 38 - 52 330° 7 - 30.05 30.04 10 FEW048 None
2017-10-16 14:53 54 38 - 54 300° 8 - 30.02 30.01 10 BKN040 None
2017-10-16 13:53 54 39 - 56 10° 9 - 30.02 30.01 10 BKN037 6-hr Min Temp (2pm): 53.1°F
6-hr Max Temp (2pm): 55.9°F
2017-10-16 12:53 54 40 - 58 350° 10 - 30.02 30.01 10 SCT036 None
2017-10-16 11:53 54 41 - 61 350° 10 - 30.02 30.01 10 BKN036 None
2017-10-16 10:53 55 42 - 61 320° 9 - 30.01 30.00 10 BKN032 None
2017-10-16 09:53 53 43 - 68 40° 10 - 30.01 30.00 10 BKN036 OVC043 None
2017-10-16 08:53 54 40 - 58 320° 10 - 29.97 29.96 10 FEW041 None
2017-10-16 07:53 54 41 - 61 300° 10 - 29.95 29.93 10 FEW042 6-hr Precip Total (8am): 0.01"
24-hr Precip Total (8am): 0.06"
6-hr Min Temp (8am): 54.0°F
6-hr Max Temp (8am): 63.0°F
2017-10-16 06:53 56 42 - 59 300° 12 - 29.90 29.88 10 SCT040 None
2017-10-16 05:53 59 48 - 66 340° 6 - 29.87 29.85 10 FEW039 SCT110 None
2017-10-16 04:53 60 48 - 64 Variable 7 - 29.83 29.82 10 FEW120 1-hr Precip Total: Trace
6-hr Precip Total (5am): 0.01"
2017-10-16 03:53 61 54 - 77 280° 10 - 29.83 29.82 10 -RA BKN110 1-hr Precip Total: 0.01"
2017-10-16 02:53 62 56 - 80 290° 5 - 29.81 29.80 10 OVC100 None
2017-10-16 01:53 63 58 - 83 220° 7 - 29.81 29.79 10 SCT070 OVC095 6-hr Precip Total (2am): 0.05"
6-hr Min Temp (2am): 63.0°F
6-hr Max Temp (2am): 69.1°F
2017-10-16 00:53 65 59 - 81 270° 8 - 29.80 29.78 10 FEW014 BKN060 OVC085 1-hr Precip Total: 0.01"
24-hr Min Temp (1am): 54.0°F
24-hr Max Temp (1am): 75.9°F
2017-10-16 00:44 65 59 - 81 280° 10 - 29.80 - 10 FEW012 BKN041 OVC085 1-hr Precip Total: 0.01"
2017-10-16 00:28 66 63 - 89 260° 8 - 29.79 - 5 -RA BR SCT012 BKN019 OVC060 1-hr Precip Total: 0.01"
2017-10-16 00:09 66 63 - 89 Variable 3 - 29.78 - 6 -RA BR FEW019 SCT028 OVC060 1-hr Precip Total: 0.01"
2017-10-16 00:02 66 62 - 87 190° 3 - 29.78 - 6 -RA BR SCT021 BKN028 OVC060 1-hr Precip Total: Trace
2017-10-15 23:53 66 62 - 87 170° 5 - 29.77 29.76 2 RA BR BKN023 BKN029 OVC060 1-hr Precip Total: 0.04"
2017-10-15 22:53 68 60 - 75 190° 6 - 29.77 29.75 10 OVC023 None
2017-10-15 21:53 68 60 - 75 210° 8 - 29.77 29.76 10 OVC023 None
2017-10-15 20:53 68 60 - 75 210° 9 - 29.77 29.76 10 OVC023 None

Support USWX by starting your Amazon purchase here.